sensor_id;sensor_type;location;lat;lon;timestamp;P1;durP1;ratioP1;P2;durP2;ratioP2
4646;SDS011;2336;47.822;7.564;2023-07-24T00:00:42;6.57;;;5.97;;
4646;SDS011;2336;47.822;7.564;2023-07-24T00:03:10;8.27;;;6.70;;
4646;SDS011;2336;47.822;7.564;2023-07-24T00:05:36;7.97;;;7.27;;
4646;SDS011;2336;47.822;7.564;2023-07-24T00:08:03;7.47;;;6.77;;
4646;SDS011;2336;47.822;7.564;2023-07-24T00:10:31;7.20;;;6.60;;
4646;SDS011;2336;47.822;7.564;2023-07-24T00:12:58;6.80;;;6.20;;
4646;SDS011;2336;47.822;7.564;2023-07-24T00:15:26;7.30;;;6.70;;
4646;SDS011;2336;47.822;7.564;2023-07-24T00:17:52;8.80;;;6.97;;
4646;SDS011;2336;47.822;7.564;2023-07-24T00:20:20;11.00;;;7.77;;
4646;SDS011;2336;47.822;7.564;2023-07-24T00:22:49;13.77;;;7.83;;
4646;SDS011;2336;47.822;7.564;2023-07-24T00:25:16;8.10;;;7.30;;
4646;SDS011;2336;47.822;7.564;2023-07-24T00:27:43;8.13;;;7.40;;
4646;SDS011;2336;47.822;7.564;2023-07-24T00:30:10;8.03;;;6.93;;
4646;SDS011;2336;47.822;7.564;2023-07-24T00:32:36;8.63;;;7.00;;
4646;SDS011;2336;47.822;7.564;2023-07-24T00:35:04;6.73;;;6.20;;
4646;SDS011;2336;47.822;7.564;2023-07-24T00:37:32;8.13;;;7.33;;
4646;SDS011;2336;47.822;7.564;2023-07-24T00:39:59;7.63;;;6.70;;
4646;SDS011;2336;47.822;7.564;2023-07-24T00:42:26;8.30;;;7.50;;
4646;SDS011;2336;47.822;7.564;2023-07-24T00:44:53;7.10;;;6.50;;
4646;SDS011;2336;47.822;7.564;2023-07-24T00:47:19;7.40;;;6.80;;
4646;SDS011;2336;47.822;7.564;2023-07-24T00:49:46;8.70;;;7.80;;
4646;SDS011;2336;47.822;7.564;2023-07-24T00:52:14;7.20;;;6.50;;
4646;SDS011;2336;47.822;7.564;2023-07-24T00:54:42;8.60;;;7.10;;
4646;SDS011;2336;47.822;7.564;2023-07-24T00:57:11;14.73;;;7.13;;
4646;SDS011;2336;47.822;7.564;2023-07-24T00:59:38;7.63;;;6.90;;
4646;SDS011;2336;47.822;7.564;2023-07-24T01:02:07;8.30;;;7.50;;
4646;SDS011;2336;47.822;7.564;2023-07-24T01:04:34;8.13;;;7.50;;
4646;SDS011;2336;47.822;7.564;2023-07-24T01:07:00;9.07;;;8.17;;
4646;SDS011;2336;47.822;7.564;2023-07-24T01:09:27;8.53;;;7.60;;
4646;SDS011;2336;47.822;7.564;2023-07-24T01:11:56;7.97;;;7.27;;
4646;SDS011;2336;47.822;7.564;2023-07-24T01:14:28;8.77;;;7.77;;
4646;SDS011;2336;47.822;7.564;2023-07-24T01:16:59;8.83;;;7.93;;
4646;SDS011;2336;47.822;7.564;2023-07-24T01:19:33;8.50;;;7.70;;
4646;SDS011;2336;47.822;7.564;2023-07-24T01:22:07;7.93;;;7.13;;
4646;SDS011;2336;47.822;7.564;2023-07-24T01:24:43;7.43;;;6.83;;
4646;SDS011;2336;47.822;7.564;2023-07-24T01:27:25;7.40;;;6.87;;
4646;SDS011;2336;47.822;7.564;2023-07-24T01:29:52;7.90;;;7.10;;
4646;SDS011;2336;47.822;7.564;2023-07-24T01:32:19;7.10;;;6.60;;
4646;SDS011;2336;47.822;7.564;2023-07-24T01:34:46;7.60;;;7.00;;
4646;SDS011;2336;47.822;7.564;2023-07-24T01:37:13;7.90;;;7.20;;
4646;SDS011;2336;47.822;7.564;2023-07-24T01:39:41;7.00;;;6.50;;
4646;SDS011;2336;47.822;7.564;2023-07-24T01:42:09;6.90;;;6.30;;
4646;SDS011;2336;47.822;7.564;2023-07-24T01:44:37;8.07;;;7.30;;
4646;SDS011;2336;47.822;7.564;2023-07-24T01:47:04;6.97;;;6.40;;
4646;SDS011;2336;47.822;7.564;2023-07-24T01:49:31;8.70;;;7.27;;
4646;SDS011;2336;47.822;7.564;2023-07-24T01:51:58;8.37;;;6.80;;
4646;SDS011;2336;47.822;7.564;2023-07-24T01:54:25;8.37;;;7.03;;
4646;SDS011;2336;47.822;7.564;2023-07-24T01:56:51;7.63;;;6.80;;
4646;SDS011;2336;47.822;7.564;2023-07-24T01:59:18;6.60;;;6.00;;
4646;SDS011;2336;47.822;7.564;2023-07-24T02:01:46;7.40;;;6.40;;
4646;SDS011;2336;47.822;7.564;2023-07-24T02:04:13;6.83;;;6.30;;
4646;SDS011;2336;47.822;7.564;2023-07-24T02:06:39;6.83;;;6.23;;
4646;SDS011;2336;47.822;7.564;2023-07-24T02:09:06;6.87;;;6.10;;
4646;SDS011;2336;47.822;7.564;2023-07-24T02:11:33;6.87;;;6.27;;
4646;SDS011;2336;47.822;7.564;2023-07-24T02:14:00;6.40;;;5.90;;
4646;SDS011;2336;47.822;7.564;2023-07-24T02:16:26;7.67;;;6.90;;
4646;SDS011;2336;47.822;7.564;2023-07-24T02:18:54;6.20;;;5.70;;
4646;SDS011;2336;47.822;7.564;2023-07-24T02:21:21;7.67;;;6.97;;
4646;SDS011;2336;47.822;7.564;2023-07-24T02:23:48;7.27;;;6.30;;
4646;SDS011;2336;47.822;7.564;2023-07-24T02:26:14;6.30;;;5.80;;
4646;SDS011;2336;47.822;7.564;2023-07-24T02:28:41;7.90;;;6.40;;
4646;SDS011;2336;47.822;7.564;2023-07-24T02:31:08;7.23;;;6.30;;
4646;SDS011;2336;47.822;7.564;2023-07-24T02:33:35;7.13;;;6.53;;
4646;SDS011;2336;47.822;7.564;2023-07-24T02:36:03;7.00;;;6.50;;
4646;SDS011;2336;47.822;7.564;2023-07-24T02:38:30;7.00;;;6.40;;
4646;SDS011;2336;47.822;7.564;2023-07-24T02:40:56;6.67;;;6.10;;
4646;SDS011;2336;47.822;7.564;2023-07-24T02:43:23;8.63;;;6.37;;
4646;SDS011;2336;47.822;7.564;2023-07-24T02:45:50;7.17;;;6.47;;
4646;SDS011;2336;47.822;7.564;2023-07-24T02:48:17;7.40;;;6.70;;
4646;SDS011;2336;47.822;7.564;2023-07-24T02:50:43;8.93;;;6.43;;
4646;SDS011;2336;47.822;7.564;2023-07-24T02:53:11;7.70;;;7.00;;
4646;SDS011;2336;47.822;7.564;2023-07-24T02:55:41;7.20;;;6.60;;
4646;SDS011;2336;47.822;7.564;2023-07-24T02:58:08;7.97;;;6.70;;
4646;SDS011;2336;47.822;7.564;2023-07-24T03:00:37;7.73;;;6.97;;
4646;SDS011;2336;47.822;7.564;2023-07-24T03:03:03;8.20;;;7.40;;
4646;SDS011;2336;47.822;7.564;2023-07-24T03:05:30;8.57;;;7.77;;
4646;SDS011;2336;47.822;7.564;2023-07-24T03:07:57;8.00;;;7.20;;
4646;SDS011;2336;47.822;7.564;2023-07-24T03:10:25;7.30;;;6.70;;
4646;SDS011;2336;47.822;7.564;2023-07-24T03:12:52;7.27;;;6.70;;
4646;SDS011;2336;47.822;7.564;2023-07-24T03:15:19;12.93;;;6.83;;
4646;SDS011;2336;47.822;7.564;2023-07-24T03:17:46;11.10;;;7.57;;
4646;SDS011;2336;47.822;7.564;2023-07-24T03:20:13;7.70;;;6.90;;
4646;SDS011;2336;47.822;7.564;2023-07-24T03:22:42;8.33;;;7.37;;
4646;SDS011;2336;47.822;7.564;2023-07-24T03:25:09;8.80;;;7.00;;
4646;SDS011;2336;47.822;7.564;2023-07-24T03:27:37;8.10;;;7.30;;
4646;SDS011;2336;47.822;7.564;2023-07-24T03:30:05;8.30;;;7.47;;
4646;SDS011;2336;47.822;7.564;2023-07-24T03:32:32;8.57;;;7.77;;
4646;SDS011;2336;47.822;7.564;2023-07-24T03:34:59;8.70;;;7.80;;
4646;SDS011;2336;47.822;7.564;2023-07-24T03:37:26;11.00;;;7.97;;
4646;SDS011;2336;47.822;7.564;2023-07-24T03:39:52;8.90;;;8.00;;
4646;SDS011;2336;47.822;7.564;2023-07-24T03:42:25;8.00;;;7.30;;
4646;SDS011;2336;47.822;7.564;2023-07-24T03:44:55;8.70;;;7.70;;
4646;SDS011;2336;47.822;7.564;2023-07-24T03:47:22;8.00;;;7.30;;
4646;SDS011;2336;47.822;7.564;2023-07-24T03:49:49;7.30;;;6.70;;
4646;SDS011;2336;47.822;7.564;2023-07-24T03:52:16;7.53;;;6.60;;
4646;SDS011;2336;47.822;7.564;2023-07-24T03:54:44;7.63;;;6.93;;
4646;SDS011;2336;47.822;7.564;2023-07-24T03:57:11;10.10;;;6.93;;
4646;SDS011;2336;47.822;7.564;2023-07-24T03:59:37;8.03;;;7.30;;
4646;SDS011;2336;47.822;7.564;2023-07-24T04:02:06;7.67;;;7.07;;
4646;SDS011;2336;47.822;7.564;2023-07-24T04:04:32;8.23;;;7.43;;
4646;SDS011;2336;47.822;7.564;2023-07-24T04:06:59;8.90;;;7.67;;
4646;SDS011;2336;47.822;7.564;2023-07-24T04:09:26;11.10;;;7.97;;
4646;SDS011;2336;47.822;7.564;2023-07-24T04:11:52;9.17;;;7.37;;
4646;SDS011;2336;47.822;7.564;2023-07-24T04:14:19;8.23;;;7.13;;
4646;SDS011;2336;47.822;7.564;2023-07-24T04:16:46;7.57;;;6.97;;
4646;SDS011;2336;47.822;7.564;2023-07-24T04:19:14;12.33;;;7.50;;
4646;SDS011;2336;47.822;7.564;2023-07-24T04:21:41;8.27;;;7.47;;
4646;SDS011;2336;47.822;7.564;2023-07-24T04:24:07;11.27;;;7.40;;
4646;SDS011;2336;47.822;7.564;2023-07-24T04:26:34;11.10;;;7.37;;
4646;SDS011;2336;47.822;7.564;2023-07-24T04:29:01;9.07;;;7.33;;
4646;SDS011;2336;47.822;7.564;2023-07-24T04:31:28;7.43;;;6.73;;
4646;SDS011;2336;47.822;7.564;2023-07-24T04:33:54;8.27;;;7.47;;
4646;SDS011;2336;47.822;7.564;2023-07-24T04:36:22;8.80;;;8.00;;
4646;SDS011;2336;47.822;7.564;2023-07-24T04:38:49;8.17;;;7.37;;
4646;SDS011;2336;47.822;7.564;2023-07-24T04:41:16;8.90;;;7.23;;
4646;SDS011;2336;47.822;7.564;2023-07-24T04:43:43;8.47;;;7.77;;
4646;SDS011;2336;47.822;7.564;2023-07-24T04:46:09;10.90;;;7.70;;
4646;SDS011;2336;47.822;7.564;2023-07-24T04:48:36;9.07;;;8.00;;
4646;SDS011;2336;47.822;7.564;2023-07-24T04:51:03;8.93;;;8.00;;
4646;SDS011;2336;47.822;7.564;2023-07-24T04:53:31;8.13;;;7.20;;
4646;SDS011;2336;47.822;7.564;2023-07-24T04:55:57;7.97;;;7.17;;
4646;SDS011;2336;47.822;7.564;2023-07-24T04:58:24;7.23;;;6.60;;
4646;SDS011;2336;47.822;7.564;2023-07-24T05:00:51;7.00;;;6.30;;
4646;SDS011;2336;47.822;7.564;2023-07-24T05:03:18;11.17;;;6.67;;
4646;SDS011;2336;47.822;7.564;2023-07-24T05:05:47;7.93;;;6.13;;
4646;SDS011;2336;47.822;7.564;2023-07-24T05:08:15;6.50;;;6.00;;
4646;SDS011;2336;47.822;7.564;2023-07-24T05:10:43;7.00;;;6.30;;
4646;SDS011;2336;47.822;7.564;2023-07-24T05:13:10;5.93;;;5.43;;
4646;SDS011;2336;47.822;7.564;2023-07-24T05:15:36;7.93;;;6.27;;
4646;SDS011;2336;47.822;7.564;2023-07-24T05:18:03;7.23;;;6.23;;
4646;SDS011;2336;47.822;7.564;2023-07-24T05:20:30;6.53;;;5.93;;
4646;SDS011;2336;47.822;7.564;2023-07-24T05:22:57;7.07;;;6.47;;
4646;SDS011;2336;47.822;7.564;2023-07-24T05:25:23;6.37;;;5.90;;
4646;SDS011;2336;47.822;7.564;2023-07-24T05:27:51;8.17;;;5.93;;
4646;SDS011;2336;47.822;7.564;2023-07-24T05:30:18;6.60;;;6.10;;
4646;SDS011;2336;47.822;7.564;2023-07-24T05:32:45;6.77;;;5.60;;
4646;SDS011;2336;47.822;7.564;2023-07-24T05:35:11;8.20;;;6.33;;
4646;SDS011;2336;47.822;7.564;2023-07-24T05:37:38;6.23;;;5.37;;
4646;SDS011;2336;47.822;7.564;2023-07-24T05:40:05;10.90;;;5.70;;
4646;SDS011;2336;47.822;7.564;2023-07-24T05:42:33;6.70;;;6.10;;
4646;SDS011;2336;47.822;7.564;2023-07-24T05:45:06;11.83;;;6.17;;
4646;SDS011;2336;47.822;7.564;2023-07-24T05:47:34;6.37;;;5.77;;
4646;SDS011;2336;47.822;7.564;2023-07-24T05:50:00;6.40;;;5.80;;
4646;SDS011;2336;47.822;7.564;2023-07-24T05:52:27;6.50;;;5.90;;
4646;SDS011;2336;47.822;7.564;2023-07-24T05:54:54;6.47;;;5.60;;
4646;SDS011;2336;47.822;7.564;2023-07-24T05:57:21;9.07;;;5.23;;
4646;SDS011;2336;47.822;7.564;2023-07-24T05:59:48;5.83;;;5.33;;
4646;SDS011;2336;47.822;7.564;2023-07-24T06:02:17;5.37;;;4.90;;
4646;SDS011;2336;47.822;7.564;2023-07-24T06:04:43;5.60;;;5.10;;
4646;SDS011;2336;47.822;7.564;2023-07-24T06:07:10;6.20;;;4.70;;
4646;SDS011;2336;47.822;7.564;2023-07-24T06:09:37;5.07;;;4.73;;
4646;SDS011;2336;47.822;7.564;2023-07-24T06:12:04;4.77;;;4.30;;
4646;SDS011;2336;47.822;7.564;2023-07-24T06:14:31;5.00;;;4.60;;
4646;SDS011;2336;47.822;7.564;2023-07-24T06:16:58;9.43;;;4.97;;
4646;SDS011;2336;47.822;7.564;2023-07-24T06:19:26;4.90;;;4.50;;
4646;SDS011;2336;47.822;7.564;2023-07-24T06:21:52;5.37;;;4.87;;
4646;SDS011;2336;47.822;7.564;2023-07-24T06:24:19;6.00;;;5.40;;
4646;SDS011;2336;47.822;7.564;2023-07-24T06:26:46;6.30;;;5.70;;
4646;SDS011;2336;47.822;7.564;2023-07-24T06:29:13;5.60;;;5.00;;
4646;SDS011;2336;47.822;7.564;2023-07-24T06:31:40;5.33;;;4.70;;
4646;SDS011;2336;47.822;7.564;2023-07-24T06:34:06;5.07;;;4.67;;
4646;SDS011;2336;47.822;7.564;2023-07-24T06:36:34;8.10;;;5.30;;
4646;SDS011;2336;47.822;7.564;2023-07-24T06:39:01;5.17;;;4.77;;
4646;SDS011;2336;47.822;7.564;2023-07-24T06:41:28;5.00;;;4.50;;
4646;SDS011;2336;47.822;7.564;2023-07-24T06:43:55;4.30;;;4.07;;
4646;SDS011;2336;47.822;7.564;2023-07-24T06:46:21;5.53;;;4.37;;
4646;SDS011;2336;47.822;7.564;2023-07-24T06:48:48;6.83;;;4.00;;
4646;SDS011;2336;47.822;7.564;2023-07-24T06:51:15;4.17;;;3.83;;
4646;SDS011;2336;47.822;7.564;2023-07-24T06:53:43;4.90;;;4.50;;
4646;SDS011;2336;47.822;7.564;2023-07-24T06:56:09;4.20;;;3.90;;
4646;SDS011;2336;47.822;7.564;2023-07-24T06:58:36;4.70;;;4.33;;
4646;SDS011;2336;47.822;7.564;2023-07-24T07:01:05;4.30;;;3.90;;
4646;SDS011;2336;47.822;7.564;2023-07-24T07:03:31;5.00;;;3.90;;
4646;SDS011;2336;47.822;7.564;2023-07-24T07:05:59;4.07;;;3.90;;
4646;SDS011;2336;47.822;7.564;2023-07-24T07:08:27;4.20;;;3.90;;
4646;SDS011;2336;47.822;7.564;2023-07-24T07:10:56;4.30;;;4.00;;
4646;SDS011;2336;47.822;7.564;2023-07-24T07:13:23;4.70;;;4.40;;
4646;SDS011;2336;47.822;7.564;2023-07-24T07:15:49;4.30;;;4.00;;
4646;SDS011;2336;47.822;7.564;2023-07-24T07:18:16;4.70;;;4.30;;
4646;SDS011;2336;47.822;7.564;2023-07-24T07:20:44;5.30;;;4.90;;
4646;SDS011;2336;47.822;7.564;2023-07-24T07:23:12;29.47;;;13.00;;
4646;SDS011;2336;47.822;7.564;2023-07-24T07:25:39;20.73;;;11.00;;
4646;SDS011;2336;47.822;7.564;2023-07-24T07:28:07;18.77;;;10.70;;
4646;SDS011;2336;47.822;7.564;2023-07-24T07:30:34;23.70;;;13.43;;
4646;SDS011;2336;47.822;7.564;2023-07-24T07:33:01;19.10;;;10.23;;
4646;SDS011;2336;47.822;7.564;2023-07-24T07:35:27;11.17;;;7.87;;
4646;SDS011;2336;47.822;7.564;2023-07-24T07:37:54;5.80;;;5.30;;
4646;SDS011;2336;47.822;7.564;2023-07-24T07:40:21;5.40;;;4.90;;
4646;SDS011;2336;47.822;7.564;2023-07-24T07:42:48;8.57;;;4.30;;
4646;SDS011;2336;47.822;7.564;2023-07-24T07:45:16;4.80;;;4.50;;
4646;SDS011;2336;47.822;7.564;2023-07-24T07:47:43;5.10;;;4.70;;
4646;SDS011;2336;47.822;7.564;2023-07-24T07:50:10;5.53;;;4.87;;
4646;SDS011;2336;47.822;7.564;2023-07-24T07:52:37;4.40;;;4.10;;
4646;SDS011;2336;47.822;7.564;2023-07-24T07:55:04;4.73;;;4.17;;
4646;SDS011;2336;47.822;7.564;2023-07-24T07:57:31;4.37;;;4.07;;
4646;SDS011;2336;47.822;7.564;2023-07-24T08:00:00;3.97;;;3.77;;
4646;SDS011;2336;47.822;7.564;2023-07-24T08:02:28;4.57;;;4.27;;
4646;SDS011;2336;47.822;7.564;2023-07-24T08:04:55;4.57;;;4.17;;
4646;SDS011;2336;47.822;7.564;2023-07-24T08:07:22;4.80;;;4.40;;
4646;SDS011;2336;47.822;7.564;2023-07-24T08:09:48;4.57;;;4.30;;
4646;SDS011;2336;47.822;7.564;2023-07-24T08:12:15;6.30;;;4.57;;
4646;SDS011;2336;47.822;7.564;2023-07-24T08:14:42;4.53;;;4.23;;
4646;SDS011;2336;47.822;7.564;2023-07-24T08:17:09;3.77;;;3.57;;
4646;SDS011;2336;47.822;7.564;2023-07-24T08:19:37;4.77;;;4.37;;
4646;SDS011;2336;47.822;7.564;2023-07-24T08:22:04;4.77;;;4.30;;
4646;SDS011;2336;47.822;7.564;2023-07-24T08:24:33;4.83;;;4.27;;
4646;SDS011;2336;47.822;7.564;2023-07-24T08:27:00;4.43;;;4.13;;
4646;SDS011;2336;47.822;7.564;2023-07-24T08:29:26;5.50;;;5.00;;
4646;SDS011;2336;47.822;7.564;2023-07-24T08:31:53;14.23;;;8.30;;
4646;SDS011;2336;47.822;7.564;2023-07-24T08:34:20;9.70;;;6.30;;
4646;SDS011;2336;47.822;7.564;2023-07-24T08:36:48;7.80;;;6.57;;
4646;SDS011;2336;47.822;7.564;2023-07-24T08:39:14;11.87;;;7.03;;
4646;SDS011;2336;47.822;7.564;2023-07-24T08:41:41;12.53;;;8.40;;
4646;SDS011;2336;47.822;7.564;2023-07-24T08:44:08;11.77;;;8.33;;
4646;SDS011;2336;47.822;7.564;2023-07-24T08:46:35;10.10;;;8.50;;
4646;SDS011;2336;47.822;7.564;2023-07-24T08:49:03;11.73;;;8.13;;
4646;SDS011;2336;47.822;7.564;2023-07-24T08:51:30;10.70;;;8.03;;
4646;SDS011;2336;47.822;7.564;2023-07-24T08:53:59;8.73;;;7.87;;
4646;SDS011;2336;47.822;7.564;2023-07-24T08:56:29;12.00;;;7.60;;
4646;SDS011;2336;47.822;7.564;2023-07-24T08:58:55;11.07;;;7.97;;
4646;SDS011;2336;47.822;7.564;2023-07-24T09:01:22;9.63;;;7.60;;
4646;SDS011;2336;47.822;7.564;2023-07-24T09:03:50;13.33;;;8.77;;
4646;SDS011;2336;47.822;7.564;2023-07-24T09:06:17;20.43;;;9.27;;
4646;SDS011;2336;47.822;7.564;2023-07-24T09:08:43;1.40;;;1.30;;
4646;SDS011;2336;47.822;7.564;2023-07-24T09:11:13;1.00;;;1.00;;
4646;SDS011;2336;47.822;7.564;2023-07-24T09:13:41;1.03;;;1.03;;
4646;SDS011;2336;47.822;7.564;2023-07-24T09:16:09;1.40;;;1.30;;
4646;SDS011;2336;47.822;7.564;2023-07-24T09:18:46;1.37;;;1.27;;
4646;SDS011;2336;47.822;7.564;2023-07-24T09:21:13;1.50;;;1.40;;
4646;SDS011;2336;47.822;7.564;2023-07-24T09:23:39;1.60;;;1.50;;
4646;SDS011;2336;47.822;7.564;2023-07-24T09:26:08;1.33;;;1.33;;
4646;SDS011;2336;47.822;7.564;2023-07-24T09:28:36;1.63;;;1.13;;
4646;SDS011;2336;47.822;7.564;2023-07-24T09:31:03;1.07;;;1.07;;
4646;SDS011;2336;47.822;7.564;2023-07-24T09:33:34;1.27;;;1.20;;
4646;SDS011;2336;47.822;7.564;2023-07-24T09:36:02;1.20;;;1.20;;
4646;SDS011;2336;47.822;7.564;2023-07-24T09:38:30;1.20;;;1.20;;
4646;SDS011;2336;47.822;7.564;2023-07-24T09:40:56;1.47;;;1.37;;
4646;SDS011;2336;47.822;7.564;2023-07-24T09:43:24;1.30;;;1.30;;
4646;SDS011;2336;47.822;7.564;2023-07-24T09:45:53;1.93;;;1.47;;
4646;SDS011;2336;47.822;7.564;2023-07-24T09:48:21;1.60;;;1.50;;
4646;SDS011;2336;47.822;7.564;2023-07-24T09:50:52;2.17;;;2.07;;
4646;SDS011;2336;47.822;7.564;2023-07-24T09:53:20;1.57;;;1.47;;
4646;SDS011;2336;47.822;7.564;2023-07-24T09:55:51;1.70;;;1.60;;
4646;SDS011;2336;47.822;7.564;2023-07-24T09:58:22;2.10;;;1.63;;
4646;SDS011;2336;47.822;7.564;2023-07-24T10:00:50;2.27;;;2.07;;
4646;SDS011;2336;47.822;7.564;2023-07-24T10:03:19;2.40;;;2.30;;
4646;SDS011;2336;47.822;7.564;2023-07-24T10:05:48;2.70;;;2.27;;
4646;SDS011;2336;47.822;7.564;2023-07-24T10:08:16;2.50;;;2.20;;
4646;SDS011;2336;47.822;7.564;2023-07-24T10:10:44;2.10;;;2.00;;
4646;SDS011;2336;47.822;7.564;2023-07-24T10:13:12;2.50;;;2.33;;
4646;SDS011;2336;47.822;7.564;2023-07-24T10:15:40;3.40;;;3.20;;
4646;SDS011;2336;47.822;7.564;2023-07-24T10:18:09;3.50;;;3.30;;
4646;SDS011;2336;47.822;7.564;2023-07-24T10:20:37;4.50;;;4.20;;
4646;SDS011;2336;47.822;7.564;2023-07-24T10:23:05;5.53;;;4.97;;
4646;SDS011;2336;47.822;7.564;2023-07-24T10:25:34;4.90;;;4.50;;
4646;SDS011;2336;47.822;7.564;2023-07-24T10:28:02;4.60;;;4.30;;
4646;SDS011;2336;47.822;7.564;2023-07-24T10:30:32;3.83;;;3.60;;
4646;SDS011;2336;47.822;7.564;2023-07-24T10:33:03;4.50;;;4.20;;
4646;SDS011;2336;47.822;7.564;2023-07-24T10:35:37;5.53;;;5.03;;
4646;SDS011;2336;47.822;7.564;2023-07-24T10:38:08;4.43;;;4.23;;
4646;SDS011;2336;47.822;7.564;2023-07-24T10:40:35;5.03;;;4.63;;
4646;SDS011;2336;47.822;7.564;2023-07-24T10:43:05;5.03;;;4.67;;
4646;SDS011;2336;47.822;7.564;2023-07-24T10:45:42;3.63;;;3.33;;
4646;SDS011;2336;47.822;7.564;2023-07-24T10:48:13;4.50;;;4.20;;
4646;SDS011;2336;47.822;7.564;2023-07-24T10:50:41;4.70;;;4.30;;
4646;SDS011;2336;47.822;7.564;2023-07-24T10:53:09;4.57;;;4.17;;
4646;SDS011;2336;47.822;7.564;2023-07-24T10:55:36;3.83;;;3.60;;
4646;SDS011;2336;47.822;7.564;2023-07-24T10:58:03;3.60;;;3.40;;
4646;SDS011;2336;47.822;7.564;2023-07-24T11:00:29;4.00;;;3.70;;
4646;SDS011;2336;47.822;7.564;2023-07-24T11:02:56;5.27;;;3.97;;
4646;SDS011;2336;47.822;7.564;2023-07-24T11:05:24;4.50;;;4.20;;
4646;SDS011;2336;47.822;7.564;2023-07-24T11:07:52;6.03;;;5.10;;
4646;SDS011;2336;47.822;7.564;2023-07-24T11:10:19;89.00;;;27.27;;
4646;SDS011;2336;47.822;7.564;2023-07-24T11:12:46;63.93;;;22.37;;
4646;SDS011;2336;47.822;7.564;2023-07-24T11:15:15;43.43;;;20.03;;
4646;SDS011;2336;47.822;7.564;2023-07-24T11:17:42;41.13;;;20.30;;
4646;SDS011;2336;47.822;7.564;2023-07-24T11:20:10;20.40;;;10.77;;
4646;SDS011;2336;47.822;7.564;2023-07-24T11:22:38;8.40;;;6.97;;
4646;SDS011;2336;47.822;7.564;2023-07-24T11:25:07;12.07;;;5.33;;
4646;SDS011;2336;47.822;7.564;2023-07-24T11:27:37;5.73;;;5.33;;
4646;SDS011;2336;47.822;7.564;2023-07-24T11:30:07;5.30;;;4.90;;
4646;SDS011;2336;47.822;7.564;2023-07-24T11:32:34;5.53;;;5.13;;
4646;SDS011;2336;47.822;7.564;2023-07-24T11:35:01;5.10;;;4.80;;
4646;SDS011;2336;47.822;7.564;2023-07-24T11:37:29;5.63;;;5.17;;
4646;SDS011;2336;47.822;7.564;2023-07-24T11:39:56;6.37;;;5.73;;
4646;SDS011;2336;47.822;7.564;2023-07-24T11:42:26;6.80;;;6.20;;
4646;SDS011;2336;47.822;7.564;2023-07-24T11:44:53;5.33;;;4.90;;
4646;SDS011;2336;47.822;7.564;2023-07-24T11:47:20;7.77;;;4.90;;
4646;SDS011;2336;47.822;7.564;2023-07-24T11:49:56;4.50;;;4.17;;
4646;SDS011;2336;47.822;7.564;2023-07-24T11:52:24;4.47;;;4.07;;
4646;SDS011;2336;47.822;7.564;2023-07-24T11:54:57;4.40;;;4.10;;
4646;SDS011;2336;47.822;7.564;2023-07-24T11:57:27;4.50;;;4.20;;
4646;SDS011;2336;47.822;7.564;2023-07-24T11:59:54;4.00;;;3.80;;
4646;SDS011;2336;47.822;7.564;2023-07-24T12:02:22;4.90;;;4.60;;
4646;SDS011;2336;47.822;7.564;2023-07-24T12:04:55;3.90;;;3.60;;
4646;SDS011;2336;47.822;7.564;2023-07-24T12:07:23;4.23;;;3.93;;
4646;SDS011;2336;47.822;7.564;2023-07-24T12:09:56;4.10;;;3.80;;
4646;SDS011;2336;47.822;7.564;2023-07-24T12:12:23;3.63;;;3.43;;
4646;SDS011;2336;47.822;7.564;2023-07-24T12:14:51;4.00;;;3.70;;
4646;SDS011;2336;47.822;7.564;2023-07-24T12:17:18;3.13;;;3.03;;
4646;SDS011;2336;47.822;7.564;2023-07-24T12:19:45;3.77;;;3.57;;
4646;SDS011;2336;47.822;7.564;2023-07-24T12:22:13;3.33;;;3.10;;
4646;SDS011;2336;47.822;7.564;2023-07-24T12:24:39;5.23;;;3.83;;
4646;SDS011;2336;47.822;7.564;2023-07-24T12:27:06;4.20;;;3.30;;
4646;SDS011;2336;47.822;7.564;2023-07-24T12:29:33;3.93;;;3.63;;
4646;SDS011;2336;47.822;7.564;2023-07-24T12:32:01;4.00;;;3.70;;
4646;SDS011;2336;47.822;7.564;2023-07-24T12:34:28;4.83;;;4.37;;
4646;SDS011;2336;47.822;7.564;2023-07-24T12:36:55;4.53;;;4.07;;
4646;SDS011;2336;47.822;7.564;2023-07-24T12:39:22;4.33;;;4.03;;
4646;SDS011;2336;47.822;7.564;2023-07-24T12:41:48;3.67;;;3.40;;
4646;SDS011;2336;47.822;7.564;2023-07-24T12:44:15;3.30;;;3.20;;
4646;SDS011;2336;47.822;7.564;2023-07-24T12:46:42;3.70;;;3.50;;
4646;SDS011;2336;47.822;7.564;2023-07-24T12:49:10;3.73;;;3.53;;
4646;SDS011;2336;47.822;7.564;2023-07-24T12:51:37;3.50;;;3.30;;
4646;SDS011;2336;47.822;7.564;2023-07-24T12:54:04;4.40;;;4.10;;
4646;SDS011;2336;47.822;7.564;2023-07-24T12:56:31;3.83;;;3.53;;
4646;SDS011;2336;47.822;7.564;2023-07-24T12:58:58;3.30;;;3.20;;
4646;SDS011;2336;47.822;7.564;2023-07-24T13:01:24;3.50;;;3.40;;
4646;SDS011;2336;47.822;7.564;2023-07-24T13:03:53;3.93;;;3.67;;
4646;SDS011;2336;47.822;7.564;2023-07-24T13:06:21;4.20;;;3.77;;
4646;SDS011;2336;47.822;7.564;2023-07-24T13:08:48;3.77;;;3.57;;
4646;SDS011;2336;47.822;7.564;2023-07-24T13:11:15;4.53;;;4.13;;
4646;SDS011;2336;47.822;7.564;2023-07-24T13:13:44;8.30;;;5.20;;
4646;SDS011;2336;47.822;7.564;2023-07-24T13:16:10;4.50;;;4.20;;
4646;SDS011;2336;47.822;7.564;2023-07-24T13:18:37;4.47;;;4.17;;
4646;SDS011;2336;47.822;7.564;2023-07-24T13:21:04;6.17;;;4.70;;
4646;SDS011;2336;47.822;7.564;2023-07-24T13:23:34;4.50;;;4.20;;
4646;SDS011;2336;47.822;7.564;2023-07-24T13:26:00;4.70;;;4.30;;
4646;SDS011;2336;47.822;7.564;2023-07-24T13:28:27;5.90;;;4.60;;
4646;SDS011;2336;47.822;7.564;2023-07-24T13:30:54;12.27;;;4.90;;
4646;SDS011;2336;47.822;7.564;2023-07-24T13:33:21;6.10;;;4.90;;
4646;SDS011;2336;47.822;7.564;2023-07-24T13:35:48;5.50;;;5.00;;
4646;SDS011;2336;47.822;7.564;2023-07-24T13:38:15;5.03;;;4.63;;
4646;SDS011;2336;47.822;7.564;2023-07-24T13:40:44;5.47;;;5.07;;
4646;SDS011;2336;47.822;7.564;2023-07-24T13:43:10;6.47;;;4.80;;
4646;SDS011;2336;47.822;7.564;2023-07-24T13:45:37;3.97;;;3.73;;
4646;SDS011;2336;47.822;7.564;2023-07-24T13:48:04;5.23;;;4.83;;
4646;SDS011;2336;47.822;7.564;2023-07-24T13:50:31;5.33;;;4.47;;
4646;SDS011;2336;47.822;7.564;2023-07-24T13:52:58;4.90;;;4.43;;
4646;SDS011;2336;47.822;7.564;2023-07-24T13:55:24;6.50;;;4.77;;
4646;SDS011;2336;47.822;7.564;2023-07-24T13:57:52;5.03;;;4.70;;
4646;SDS011;2336;47.822;7.564;2023-07-24T14:00:19;5.03;;;4.73;;
4646;SDS011;2336;47.822;7.564;2023-07-24T14:02:46;4.80;;;4.37;;
4646;SDS011;2336;47.822;7.564;2023-07-24T14:05:13;5.47;;;5.10;;
4646;SDS011;2336;47.822;7.564;2023-07-24T14:07:39;4.87;;;4.50;;
4646;SDS011;2336;47.822;7.564;2023-07-24T14:10:06;4.50;;;4.30;;
4646;SDS011;2336;47.822;7.564;2023-07-24T14:12:34;5.53;;;5.07;;
4646;SDS011;2336;47.822;7.564;2023-07-24T14:15:02;5.10;;;4.60;;
4646;SDS011;2336;47.822;7.564;2023-07-24T14:17:30;4.57;;;4.27;;
4646;SDS011;2336;47.822;7.564;2023-07-24T14:19:56;4.80;;;4.50;;
4646;SDS011;2336;47.822;7.564;2023-07-24T14:22:23;5.40;;;5.00;;
4646;SDS011;2336;47.822;7.564;2023-07-24T14:24:50;6.93;;;5.03;;
4646;SDS011;2336;47.822;7.564;2023-07-24T14:27:17;5.43;;;5.03;;
4646;SDS011;2336;47.822;7.564;2023-07-24T14:29:43;5.50;;;5.13;;
4646;SDS011;2336;47.822;7.564;2023-07-24T14:32:11;5.07;;;4.67;;
4646;SDS011;2336;47.822;7.564;2023-07-24T14:34:38;5.40;;;4.90;;
4646;SDS011;2336;47.822;7.564;2023-07-24T14:37:05;5.00;;;4.60;;
4646;SDS011;2336;47.822;7.564;2023-07-24T14:39:31;4.80;;;4.50;;
4646;SDS011;2336;47.822;7.564;2023-07-24T14:41:58;6.20;;;5.37;;
4646;SDS011;2336;47.822;7.564;2023-07-24T14:44:25;5.03;;;4.73;;
4646;SDS011;2336;47.822;7.564;2023-07-24T14:46:51;5.13;;;4.70;;
4646;SDS011;2336;47.822;7.564;2023-07-24T14:49:19;4.60;;;4.30;;
4646;SDS011;2336;47.822;7.564;2023-07-24T14:51:46;4.47;;;4.27;;
4646;SDS011;2336;47.822;7.564;2023-07-24T14:54:12;4.63;;;4.33;;
4646;SDS011;2336;47.822;7.564;2023-07-24T14:56:39;4.10;;;3.90;;
4646;SDS011;2336;47.822;7.564;2023-07-24T14:59:06;6.83;;;3.87;;
4646;SDS011;2336;47.822;7.564;2023-07-24T15:01:32;4.07;;;3.87;;
4646;SDS011;2336;47.822;7.564;2023-07-24T15:03:59;4.83;;;4.43;;
4646;SDS011;2336;47.822;7.564;2023-07-24T15:06:27;3.87;;;3.60;;
4646;SDS011;2336;47.822;7.564;2023-07-24T15:08:56;4.47;;;4.07;;
4646;SDS011;2336;47.822;7.564;2023-07-24T15:11:23;4.60;;;4.20;;
4646;SDS011;2336;47.822;7.564;2023-07-24T15:13:50;4.30;;;4.00;;